Nashville, Tennessee
Current Conditions -  °F | °C
As of 3:53 AM on Wednesday 22 Oct 2014 (Local Time) from KBNA Reporting Station
Clear Clear  
Wind Chill: 43°   Ceiling: Unl
Heat Index: 45°   Visibility: 10mi
Dew Point: 41°   Wind: 5mph
Humidity: 86%   Direction: 350°N
Pressure: 30.17"   Gusts: NA
Location:  36.11°N, 86.68°W
Report Text: KBNA 220853Z 35004KT 10SM CLR 07/05 A3017 RMK AO2 SLP214 T00720050 53010
Loading
Personal Weather Stations






























Interactive Weather Map
Tropical Storm Tracking
New forecast layout! Learn more

10-Day Weather Forecast

Advertisements
Track Severe Weather on mobile